Tiempo atmosférico en la estación meteorológica de Eivissa Aeropuerto, Illes Balears (6 m.)



Fecha
DESCASC
Temp. máxima en grados centígrados (hora)
DESCASC
Temp. mínima en grados centígrados (hora)
DESCASC
Temp. media en grados centígrados
DESCASC
Racha de viento máxima en m/sg (hora)
DESCASC
Velocidad máxima media en intervalos de 10 minutos(hora)
DESCASC
Precipitaciones diarias en mm
DESCASC
Precipitaciones de 00:00 a 06:00 en mm
DESCASC
Precipitaciones de 06:00 a 12:00 en mm
DESCASC
Precipitaciones de 12:00 a 18:00 en mm
DESCASC
Precipitaciones de 18:00 a 24:00 en mm
DESCASC

Gráficas

Temp. máximas Temp. mínimas Temp. medias Precipitaciones Rachas de viento máximas Velocidades máximas media en intervalos de 10 minutos

Datos horarios

Fecha y hora oficial Temperatura (ºC) Velocidad del viento (km/h) Dirección del viento Racha (km/h) Dirección de racha Precipitación (mm) Presión (hPa) Tendencia (hPa) Humedad (%)
2020-04-09 23:00:00 13.7 8 Norte 13 Norte 0 1020.5 1.3 79
2020-04-09 22:00:00 14 8 Norte 13 Nordeste 0 1020.3 1.1 81
2020-04-09 21:00:00 14.6 10 Nordeste 17 Nordeste 0 1019.5 0.3 79
2020-04-09 20:00:00 16 11 Este 21 Este 0 1019.2 -0.2 70
2020-04-09 19:00:00 16.8 12 Este 24 Este 0 1019.2 -0.4 70
2020-04-09 18:00:00 17.3 16 Este 28 Este 0 1019.2 -1 71
2020-04-09 17:00:00 17.6 17 Este 30 Este 0 1019.4 -1.1 67
2020-04-09 16:00:00 18.2 21 Este 28 Este 0 1019.6 -1.2 62
2020-04-09 15:00:00 18.1 16 Este 28 Este 0 1020.2 -0.9 64
2020-04-09 14:00:00 17.9 19 Este 30 Este 0 1020.5 -0.5 65
2020-04-09 13:00:00 17.9 18 Este 28 Este 0 1020.8 0.3 66
2020-04-09 12:00:00 17.7 17 Este 30 Este 0 1021.1 0.7 66
2020-04-09 11:00:00 17.3 17 Este 30 Nordeste 0 1021 1.1 69
2020-04-09 10:00:00 16.1 17 Este 24 Este 0 1020.5 0.9 75
2020-04-09 09:00:00 14.5 12 Nordeste 17 Nordeste 0 1020.4 0.9 86
2020-04-09 08:00:00 11 12 Nordeste 15 Nordeste 0 1019.9 0 88
2020-04-09 07:00:00 10.6 8 Nordeste 17 Nordeste 0 1019.6 -0.6 88
2020-04-09 06:00:00 10.2 9 Nordeste 13 Nordeste 0 1019.5 -1.1 89
2020-04-09 05:00:00 10.6 9 Nordeste 11 Nordeste 0 1019.9 -1.4 88
2020-04-09 04:00:00 11.2 9 Norte 11 Norte 0 1020.2 -1.4 88
2020-04-09 03:00:00 -- 9 Norte 13 Norte 0 1020.6 -1.2 --
2020-04-09 02:00:00 11.2 6 Nordeste 11 Norte 0 1021.3 -0.6 87
2020-04-09 01:00:00 11.9 -- -- -- -- 0 1021.6 -0.1 85
2020-04-09 00:00:00 12.3 10 Norte 15 Este 0 1021.8 0.5 84
2020-04-08 23:00:00 14.2 11 Este 18 Este 0 1021.9 0.9 79
2020-04-08 22:00:00 14.2 11 Este 18 Este 0 1021.7 0.7 80
2020-04-08 21:00:00 14.7 12 Este 22 Este 0 1021.3 0.2 78
2020-04-08 20:00:00 15.6 13 Este 24 Este 0 1021 -0.5 75
2020-04-08 19:00:00 16.5 15 Este 26 Este 0 1021 -0.9 70
2020-04-08 18:00:00 17.1 17 Este 24 Norte 0 1021.1 -1.4 69
2020-04-08 17:00:00 17.6 14 Este 24 Este 0 1021.5 -1.5 64
2020-04-08 16:00:00 17.6 14 Este 22 Este 0 1021.9 -1.5 66
2020-04-08 15:00:00 17.4 13 Este 22 Este 0 1022.5 -1.2 68
2020-04-08 14:00:00 17.2 18 Este 28 Este 0 1023 -0.9 68
2020-04-08 13:00:00 16.9 17 Este 26 Este 0 1023.4 -0.3 67
2020-04-08 12:00:00 16.8 15 Nordeste 26 Este 0 1023.7 0 65
2020-04-08 11:00:00 16.7 15 Este 22 Este 0 1023.9 0.6 62
2020-04-08 10:00:00 15.7 11 Este 15 Este 0 1023.7 0.7 65
2020-04-08 09:00:00 13 0 Calma 9 Norte 0 1023.7 0.4 82
2020-04-08 08:00:00 9.5 4 Norte 8 Norte 0 1023.3 -0.5 86
2020-04-08 07:00:00 9.3 5 Nordeste 8 Norte 0 1023 -0.9 87
2020-04-08 06:00:00 8.7 3 Norte 9 Norte 0 1023.3 -1 86
2020-04-08 05:00:00 9.3 0 Calma 9 Norte 0 1023.8 -0.7 85
2020-04-08 04:00:00 9.4 0 Calma 9 Norte 0 1023.9 -0.9 84
2020-04-08 03:00:00 10.3 5 Norte 9 Norte 0 1024.3 -0.4 83
2020-04-08 02:00:00 10.3 6 Norte 11 Norte 0 1024.5 -0.3 82
2020-04-08 01:00:00 11 8 Norte 13 Norte 0 1024.8 0 81
2020-04-08 00:00:00 11.8 10 Norte 13 Nordeste 0 1024.7 0.5 78
2020-04-07 23:00:00 13.3 8 Nordeste 17 Este 0 1024.8 0.9 72
2020-04-07 22:00:00 14.3 10 Este 18 Este 0 1024.8 1.2 69
2020-04-07 21:00:00 14.1 13 Este 18 Este 0 1024.2 0.7 68
2020-04-07 20:00:00 15.2 9 Este 21 Este 0 1023.9 -0.1 64
2020-04-07 19:00:00 16.2 14 Este 22 Este 0 1023.6 -0.6 60
2020-04-07 18:00:00 16.8 17 Nordeste 24 Este 0 1023.5 -1 59
2020-04-07 17:00:00 17 13 Este 22 Este 0 1024 -0.6 60
2020-04-07 16:00:00 17.5 13 Este 24 Este 0 1024.2 -0.7 61
2020-04-07 15:00:00 17.6 13 Este 26 Este 0 1024.5 -0.5 58
2020-04-07 14:00:00 17.3 17 Este 26 Este 0 1024.6 -0.5 61
2020-04-07 13:00:00 17.3 14 Este 24 Este 0 1024.9 0.4 62
2020-04-07 12:00:00 17.1 17 Este 24 Este 0 1025 0.8 62
2020-04-07 11:00:00 16.3 13 Este 21 Este 0 1025.1 1.5 64
2020-04-07 10:00:00 15.5 12 Este 21 Este 0 1024.5 1.1 66
2020-04-07 09:00:00 14.8 9 Nordeste 15 Nordeste 0 1024.2 1.2 71
2020-04-07 08:00:00 10.1 7 Norte 13 Nordeste 0 1023.6 0.4 84
2020-04-07 07:00:00 10.3 4 Norte 9 Norte 0 1023.4 0 81
2020-04-07 06:00:00 9.7 5 Nordeste 11 Norte 0 1023 -0.7 83
2020-04-07 05:00:00 10.7 9 Norte 13 Nordeste 0 1023.2 -0.6 79
2020-04-07 04:00:00 11.1 8 Norte -- -- 0 1023.4 -0.3 78
2020-04-07 03:00:00 11.7 8 Nordeste 11 Nordeste 0 1023.7 0.2 75
2020-04-07 02:00:00 11.6 8 Norte 11 Norte 0 1023.8 0.3 76
2020-04-07 01:00:00 13.7 8 Este 17 Este 0 1023.7 0 66
2020-04-07 00:00:00 13.9 11 Este 17 Sudeste 0 1023.5 0.4 64
2020-04-06 23:00:00 13.5 10 Este 15 Este 0 1023.5 0.9 69
2020-04-06 22:00:00 13.6 8 Sudeste 13 Sudeste 0 1023.7 1.3 69
2020-04-06 21:00:00 14.1 8 Sudeste 21 Este 0 1023.1 1.2 68
2020-04-06 20:00:00 14.8 10 Sudeste 17 Sudeste 0 1022.6 0.4 67
2020-04-06 19:00:00 15.6 11 Sudeste 21 Sudeste 0 1022.4 0.1 67
2020-04-06 18:00:00 16.2 14 Este 26 Este 0 1021.9 -0.8 65
2020-04-06 17:00:00 17.3 15 Este 26 Este 0 1022.2 -0.3 62
2020-04-06 16:00:00 17.6 17 Este 26 Norte 0 1022.3 -0.2 60
2020-04-06 15:00:00 16.8 15 Este 28 Este 0 1022.7 0.1 64
2020-04-06 14:00:00 17 17 Este 24 Este 0 1022.5 0.2 61
2020-04-06 13:00:00 17.1 15 Este 22 Sudeste 0 1022.5 1.1 62
2020-04-06 12:00:00 16.6 11 Este 18 Norte 0 1022.6 1.9 63
2020-04-06 11:00:00 15.9 10 Este 17 Este 0 1022.3 2.2 65
2020-04-06 10:00:00 15 3 Nordeste 9 Este 0 1021.4 1.8 72
2020-04-06 09:00:00 11.9 2 Este 5 Norte 0 1020.7 1.4 88
2020-04-06 08:00:00 9.3 0 Calma -- -- 0 1020.1 0.5 89
2020-04-06 07:00:00 8.5 4 Norte 8 Noroeste 0 1019.6 -0.1 89
2020-04-06 06:00:00 9.1 4 Norte 9 Norte 0 1019.3 -0.3 88
2020-04-06 05:00:00 8.8 4 Norte 9 Noroeste 0 1019.6 -0.3 87
2020-04-06 04:00:00 9.2 2 Noroeste 8 Noroeste 0 1019.7 0.1 85
2020-04-06 03:00:00 8.9 0 Calma 11 Noroeste 0 1019.6 0.2 84
2020-04-06 02:00:00 9.7 9 Noroeste 11 Norte 0 1019.9 0.7 82
2020-04-06 01:00:00 9.3 4 Noroeste 9 Norte 0 1019.6 0.6 82
2020-04-06 00:00:00 10 7 Norte 9 Norte 0 1019.4 1.3 80
2020-04-05 23:00:00 10.4 3 Norte 13 Norte 0 1019.2 1.3 78
2020-04-05 22:00:00 12.1 6 Norte 15 Este 0 1019 1.2 72
2020-04-05 21:00:00 12.8 11 Nordeste 17 Este 0 1018.1 -0.1 69
2020-04-05 20:00:00 14.2 12 Este 21 Este 0 1017.9 -0.3 62
2020-04-05 19:00:00 15.4 14 Nordeste 22 Este 0 1017.8 -0.7 59
2020-04-05 18:00:00 15.7 12 Nordeste 22 Este 0 1018.2 -0.9 60
2020-04-05 17:00:00 16.2 13 Este 21 Este 0 1018.2 -1.3 55
2020-04-05 16:00:00 16.2 13 Este 24 Este 0 1018.5 -1.1 56
2020-04-05 15:00:00 16.6 15 Este 24 Este 0 1019.1 -0.5 55
2020-04-05 14:00:00 16.4 13 Este 26 Este 0 1019.5 -0.3 57
2020-04-05 13:00:00 16.1 18 Este 28 Este 0 1019.6 0.2 59
2020-04-05 12:00:00 15.5 14 Este 22 Este 0 1019.6 0.5 62
2020-04-05 11:00:00 15.1 16 Este 24 Este 0 1019.8 1.4 63
2020-04-05 10:00:00 14.2 10 Nordeste 15 Nordeste 0 1019.4 1.5 68
2020-04-05 09:00:00 11.5 2 Nordeste 8 Norte 0 1019.1 1.2 80
2020-04-05 08:00:00 9.1 6 Norte 9 Norte 0 1018.4 0.6 83
2020-04-05 07:00:00 9.2 4 Norte 9 Norte 0 1017.9 0.1 81
2020-04-05 06:00:00 8.8 7 Norte 9 Norte 0 1017.9 -0.3 82
2020-04-05 05:00:00 9 4 Norte 11 Norte 0 1017.8 -1.1 80
2020-04-05 04:00:00 8.9 9 Norte 13 Nordeste 0 1017.8 -1.4 82
2020-04-05 03:00:00 8.3 5 Norte 9 Norte 0 1018.2 -1.1 83
2020-04-05 02:00:00 8.6 5 Norte 9 Norte 0 1018.9 -0.3 82
2020-04-05 01:00:00 8.7 5 Norte 11 Noroeste 0 1019.2 0.2 80
2020-04-05 00:00:00 9.4 9 Norte 13 Norte 0 1019.3 0.8 79
2020-04-04 23:00:00 9.8 7 Noroeste 13 Norte 0 1019.2 1.1 78
2020-04-04 22:00:00 10.8 8 Noroeste 9 Noroeste 0 1019 1.2 73
2020-04-04 21:00:00 12.5 5 Sudeste 11 Este 0 1018.5 0.8 65
2020-04-04 20:00:00 14.4 9 Sudeste 17 Sudeste 0 1018.1 0.4 62
2020-04-04 19:00:00 15.7 10 Este 21 Este 0 1017.8 -0.3 61
2020-04-04 18:00:00 16 14 Este 24 Este 0 1017.7 -0.9 61
2020-04-04 17:00:00 16.7 15 Este 26 Este 0 1017.7 -1.1 60
2020-04-04 16:00:00 17.2 15 Este 26 Este 0 1018.1 -0.9 59
2020-04-04 15:00:00 17.1 17 Este 26 Este 0 1018.6 -0.5 57
2020-04-04 14:00:00 17.1 16 Este 24 Sudeste 0 1018.8 -0.2 58
2020-04-04 13:00:00 16.5 14 Este 22 Este 0 1019 0.6 62
2020-04-04 12:00:00 16.5 14 Este 21 Este 0 1019.1 1.1 63
2020-04-04 11:00:00 15.7 7 Sur 11 Sur 0 1019 1.3 62
2020-04-04 10:00:00 14.2 3 Sur 9 Sudeste 0 1018.4 1.3 81
2020-04-04 09:00:00 10.7 0 Calma 8 Norte 0 1018 1 91
2020-04-04 08:00:00 7.3 0 Calma 4 Noroeste 0 1017.7 0.6 91
2020-04-04 07:00:00 7 0 Calma 8 Norte 0 1017.1 0 90
2020-04-04 06:00:00 7.7 0 Calma 5 Norte 0 1017 -0.3 90
2020-04-04 05:00:00 7.7 4 Norte 8 Norte 0 1017.1 -0.3 89
2020-04-04 04:00:00 8.1 5 Norte 8 Norte 0 1017.1 -0.4 89
2020-04-04 03:00:00 8 0 Calma 8 Norte 0 1017.3 0 88
2020-04-04 02:00:00 8.6 0 Calma 8 Nordeste 0 1017.4 0.4 87
2020-04-04 01:00:00 9.2 3 Norte 9 Norte 0 1017.5 1.1 83
2020-04-04 00:00:00 10 4 Norte 8 Norte 0 1017.3 1.7 81
2020-04-03 23:00:00 10.3 2 Norte 11 Norte 0 1017 1.8 80
2020-04-03 22:00:00 11.3 8 Norte 13 Este 0 1016.4 1.4 75
2020-04-03 21:00:00 12.6 10 Este 21 Este 0 1015.6 0.9 70
2020-04-03 20:00:00 14 9 Nordeste 17 Norte 0 1015.2 0.6 61
2020-04-03 19:00:00 15.6 13 Norte 26 Norte 0 1015 0.4 54
2020-04-03 18:00:00 16.1 10 Nordeste 28 Norte 0 1014.7 0 53
2020-04-03 17:00:00 16.3 14 Nordeste 37 Norte 0 1014.6 -0.2 52
2020-04-03 16:00:00 16.5 19 Nordeste 37 Norte 0 1014.6 -0.3 52
2020-04-03 15:00:00 16.4 20 Norte 41 Norte 0 1014.7 -0.1 54
2020-04-03 14:00:00 16.1 20 Norte 41 Norte 0 1014.8 0.6 54
2020-04-03 13:00:00 16.1 21 Nordeste 46 Nordeste 0 1014.9 1.4 53
2020-04-03 12:00:00 15.4 23 Norte 39 Nordeste 0 1014.8 2.1 57
2020-04-03 11:00:00 14.6 19 Norte 39 Norte 0 1014.2 2.4 62
2020-04-03 10:00:00 13.7 23 Norte 42 Nordeste 0 1013.5 2.4 64
2020-04-03 09:00:00 13.3 25 Norte 37 Norte 0 1012.7 2.2 66
2020-04-03 08:00:00 12.5 26 Norte 41 Norte 0 1011.8 1.5 66
2020-04-03 07:00:00 12 22 Norte 45 Nordeste 0 1011.1 0.7 63
2020-04-03 06:00:00 11.9 25 Norte 45 Norte 0 1010.5 0 64
2020-04-03 05:00:00 11.5 19 Norte 42 Norte 0 1010.3 -0.1 70
2020-04-03 04:00:00 11.6 22 Norte 35 Norte 0 1010.4 -0.1 70
2020-04-03 03:00:00 11.8 21 Norte 37 Norte 0 1010.5 0 73
2020-04-03 02:00:00 12.3 21 Norte 35 Norte 0 1010.4 0 78
2020-04-03 01:00:00 12.3 20 Norte 33 Norte 0 1010.5 0.6 81
2020-04-03 00:00:00 12.3 18 Norte 30 Norte 0.2 1010.5 1.3 82
2020-04-02 23:00:00 12.7 18 Norte 32 Norte 0 1010.4 1.5 81
2020-04-02 22:00:00 12.7 15 Norte 28 Norte 0 1009.9 1.4 83
2020-04-02 21:00:00 12.8 13 Norte 26 Norte 0.4 1009.2 1.4 85
2020-04-02 20:00:00 13 13 Norte 24 Norte 1.7 1008.9 1.2 84
2020-04-02 19:00:00 12.8 13 Norte 26 Noroeste 6.4 1008.5 0.3 86
2020-04-02 18:00:00 13.6 15 Norte 32 Noroeste 7.3 1007.8 -0.4 83
2020-04-02 17:00:00 15.4 21 Noroeste 30 Noroeste 0 1007.7 -0.7 71
2020-04-02 16:00:00 14.2 19 Noroeste 33 Noroeste 0.1 1008.2 -0.1 74
2020-04-02 15:00:00 14.5 24 Noroeste 37 Norte 0 1008.2 -0.1 71
2020-04-02 14:00:00 14.1 18 Noroeste 45 Noroeste 0 1008.4 0.4 73
2020-04-02 13:00:00 14 27 Noroeste 41 Norte 0 1008.3 0.7 75
2020-04-02 12:00:00 14.3 28 Noroeste 37 Noroeste 0 1008.3 0.6 76
2020-04-02 11:00:00 13.3 23 Noroeste 37 Norte 0.1 1008 0.8 81
2020-04-02 10:00:00 12.8 9 Oeste 18 Noroeste 1.2 1007.6 0.8 86
2020-04-02 09:00:00 10.2 13 Noroeste 26 Norte 6.9 1007.7 1 84
2020-04-02 08:00:00 11.9 12 Noroeste 35 Noroeste 1 1007.2 0.3 81
2020-04-02 07:00:00 12.8 9 Norte 21 Nordeste 0 1006.8 -0.3 80
2020-04-02 06:00:00 12.9 6 Nordeste 17 Nordeste 0 1006.7 -1.9 80
2020-04-02 05:00:00 12.9 14 Noroeste 33 Noroeste 0.2 1006.9 -2 84
2020-04-02 04:00:00 12.3 17 Norte 26 Norte 1.4 1007.1 -2.1 84
2020-04-02 03:00:00 13.1 13 Oeste 26 Oeste 0 1008.6 -1.2 83
2020-04-02 02:00:00 11.5 7 Noroeste 8 Noroeste 0 1008.9 -0.8 84
2020-04-02 01:00:00 12.1 3 Noroeste 8 Noroeste 0 1009.2 -0.5 83
2020-04-02 00:00:00 12.1 6 Noroeste 9 Noroeste 0 1009.8 0.6 82
2020-04-01 23:00:00 12.5 7 Noroeste 15 Noroeste 0 1009.7 0.7 82
2020-04-01 22:00:00 14 10 Noroeste 18 Sudoeste 0 1009.7 0.9 81
2020-04-01 21:00:00 14.6 13 Oeste 22 Oeste 0 1009.2 0.6 82
2020-04-01 20:00:00 15 14 Sudoeste 22 Oeste 0 1009 0.4 81
2020-04-01 19:00:00 15.9 15 Sudoeste 28 Sudoeste 0 1008.8 -0.1 80
2020-04-01 18:00:00 16.8 19 Sudoeste 28 Sur 0 1008.6 -1 76
2020-04-01 17:00:00 17.3 19 Sudoeste 30 Sudoeste 0 1008.6 -1.4 73
2020-04-01 16:00:00 16.7 18 Sur 28 Sur 0 1008.9 -1.2 74
2020-04-01 15:00:00 16.9 17 Sudoeste 24 Sudoeste 0 1009.6 -0.8 71
2020-04-01 14:00:00 15.6 12 Sudoeste 21 Sudoeste 0 1010 -0.3 73
2020-04-01 13:00:00 16.7 12 Sudoeste 21 Sudoeste 0 1010.1 0.3 70
2020-04-01 12:00:00 15.6 13 Sudoeste 22 Sudoeste 0 1010.4 1.5 72
2020-04-01 11:00:00 15.2 14 Sudoeste 22 Sudoeste 0 1010.3 1.5 74
2020-04-01 10:00:00 15.5 4 Sudoeste 18 Noroeste 0 1009.8 1.2 71
2020-04-01 09:00:00 14.6 12 Oeste 18 Oeste 0 1008.9 0.4 77
2020-04-01 08:00:00 13.2 13 Oeste 18 Oeste 0 1008.8 0.7 81
2020-04-01 07:00:00 13.6 16 Oeste 28 Sudoeste 0 1008.6 -0.1 85
2020-04-01 06:00:00 13.6 15 Oeste 21 Sudoeste 0 1008.5 -0.4 89
2020-04-01 05:00:00 12.7 8 Norte 11 Norte 0 1008.1 -0.7 89
2020-04-01 04:00:00 12.6 5 Noroeste 8 Noroeste 0 1008.7 -0.2 89
2020-04-01 03:00:00 12.9 7 Oeste 9 Oeste 0 1008.9 0.2 88
2020-04-01 02:00:00 12.3 5 Oeste 8 Oeste 0 1008.8 0.1 89
2020-04-01 01:00:00 11.9 3 Noroeste 5 Oeste 0 1008.9 0.7 88
2020-04-01 00:00:00 12.4 5 Noroeste 8 Noroeste 0 1008.7 1.3 87
2020-03-31 23:00:00 12.5 0 Calma 11 Norte 0 1008.7 2.1 85
2020-03-31 22:00:00 13.9 6 Oeste 11 Norte 0 1008.2 1.9 80
2020-03-31 21:00:00 14.8 8 Oeste 13 Sudoeste 0 1007.4 1.6 79
2020-03-31 20:00:00 15.6 8 Sudoeste 17 Sudoeste 0 1006.6 1.2 82
2020-03-31 19:00:00 17.1 13 Sudoeste 18 Sudoeste 0 1006.3 0.8 73
2020-03-31 18:00:00 18.3 14 Este 24 Sudeste 0 1005.8 0.1 69
2020-03-31 17:00:00 18.7 18 Este 26 Sudeste 0 1005.4 -1 67
2020-03-31 16:00:00 17.9 18 Este 30 Nordeste 0 1005.5 -1.2 72
2020-03-31 15:00:00 17.5 24 Nordeste 39 Nordeste 0 1005.7 -0.8 73
2020-03-31 14:00:00 16.9 24 Nordeste 35 Este 0 1006.4 -0.2 74
2020-03-31 13:00:00 15.7 16 Nordeste 39 Este 0.1 1006.7 -0.7 80
2020-03-31 12:00:00 15.6 27 Nordeste 41 Este 0 1006.5 0 78
2020-03-31 11:00:00 15.7 27 Este 42 Este 0 1006.6 0.5 78
2020-03-31 10:00:00 15.1 26 Este 46 Este 0 1007.4 0.8 80
2020-03-31 09:00:00 14.8 29 Este 46 Este 0 1006.5 -0.3 80
2020-03-31 08:00:00 14.5 29 Este 46 Este 0 1006.1 -1.2 79
2020-03-31 07:00:00 14.2 26 Este 39 Este 0 1006.6 -1.2 79
2020-03-31 06:00:00 14.1 24 Este 37 Este 0 1006.8 -1.9 78
2020-03-31 05:00:00 14 21 Este 30 Este 0 1007.3 -1.9 77
2020-03-31 04:00:00 13 13 Nordeste 18 Este 0 1007.8 -2 80
2020-03-31 03:00:00 13.9 14 Nordeste 22 Este 0 1008.7 -1.5 77
2020-03-31 02:00:00 13.6 13 Este 18 Este 0 1009.2 -1.1 79
2020-03-31 01:00:00 12.6 7 Norte 9 Norte 0 1009.8 -0.5 80
2020-03-31 00:00:00 12 2 Sur 11 Norte 0 1010.2 -0.2 79
2020-03-30 23:00:00 12.5 6 Nordeste 13 Nordeste 0 1010.3 0.5 75
2020-03-30 22:00:00 12.3 9 Nordeste 11 Nordeste 0 1010.3 0.6 78
2020-03-30 21:00:00 12.7 2 Norte 13 Norte 0 1010.4 0.8 75
2020-03-30 20:00:00 13.5 10 Norte 22 Nordeste 0 1009.8 -0.2 70
2020-03-30 19:00:00 14 16 Norte 22 Nordeste 0 1009.7 -0.9 67
2020-03-30 18:00:00 15.1 17 Nordeste 26 Nordeste 0 1009.6 -1.6 58
2020-03-30 17:00:00 15.2 19 Norte 33 Norte 0 1010 -1.5 55
2020-03-30 16:00:00 13.9 17 Norte 33 Norte 0 1010.6 -0.8 61
2020-03-30 15:00:00 14.9 19 Norte 26 Norte 0 1011.2 -0.5 63
2020-03-30 14:00:00 14.5 15 Nordeste 30 Este 0 1011.5 0 68
2020-03-30 13:00:00 16.2 14 Nordeste 26 Nordeste 0 1011.4 0.2 60
2020-03-30 12:00:00 15.3 17 Nordeste 26 Nordeste 0 1011.7 0.8 64
2020-03-30 11:00:00 14.9 17 Nordeste 22 Norte 0 1011.5 1.1 68
2020-03-30 10:00:00 15.3 10 Sudoeste 21 Sudoeste 0 1011.2 1.1 75
2020-03-30 09:00:00 14.5 15 Sudoeste 26 Sudoeste 0 1010.9 0.7 79
2020-03-30 08:00:00 14.1 19 Sudoeste 28 Sudoeste 0 1010.4 -0.1 81
2020-03-30 07:00:00 14.2 20 Sudoeste 33 Sudoeste 0 1010.1 -0.9 80
2020-03-30 06:00:00 13.8 19 Sudoeste 30 Sudoeste 0 1010.2 -1.6 79
2020-03-30 05:00:00 14.1 20 Sudoeste 28 Sudoeste 0 1010.5 -1.7 77
2020-03-30 04:00:00 14.4 16 Sudoeste 28 Sudoeste 0 1011 -1.6 73
2020-03-30 03:00:00 14.3 14 Sudoeste 28 Sudoeste 0 1011.8 -1.3 73
2020-03-30 02:00:00 14.3 18 Sudoeste 30 Sudoeste 0 1012.2 -1.2 73
2020-03-30 01:00:00 14.1 23 Sudoeste 37 Sudoeste 0 1012.6 -0.9 75
2020-03-30 00:00:00 14.2 24 Sudoeste 32 Sudoeste 0 1013.1 -0.3 75
2020-03-29 23:00:00 14 20 Sudoeste 30 Sudoeste 0 1013.4 0.3 71
2020-03-29 22:00:00 13.9 17 Sudoeste 28 Sudoeste 0 1013.5 0.5 76
2020-03-29 21:00:00 13.8 18 Sudoeste 30 Sudoeste 0 1013.4 0.2 71
2020-03-29 20:00:00 14.6 18 Sudoeste 26 Sudoeste 0 1013.1 -0.5 67
2020-03-29 19:00:00 15.7 18 Sudoeste 26 Sudoeste 0 1013 -0.9 61
2020-03-29 18:00:00 16.4 20 Sudoeste 30 Sudoeste 0 1013.2 -1.2 58
2020-03-29 17:00:00 16.4 25 Sudoeste 32 Sudoeste 0 1013.6 -1.2 54
2020-03-29 16:00:00 16.8 24 Sudoeste 35 Sudoeste 0 1013.9 -- 52
2020-03-29 15:00:00 16.9 26 Sudoeste 35 Sudoeste 0 1014.4 -1 50
2020-03-29 14:00:00 17.4 23 Sudoeste 32 Oeste 0 1014.8 -0.9 48
2020-03-29 13:00:00 17.9 19 Sudoeste 28 Sudoeste 0 -- -- 45
2020-03-29 12:00:00 17.7 10 Oeste 22 Noroeste 0 1015.4 0.1 42
2020-03-29 11:00:00 16.4 12 Oeste 24 Oeste 0 1015.7 0.5 46
2020-03-29 10:00:00 14.4 13 Oeste 18 Sudoeste 0 1015.4 0.4 62
2020-03-29 09:00:00 11.3 10 Oeste 15 Oeste 0 1015.3 0.2 88
2020-03-29 08:00:00 5.8 2 Oeste 8 Norte 0 1015.2 -0.3 90
2020-03-29 07:00:00 6.1 5 Norte 8 Norte 0 1015 -1 89
2020-03-29 06:00:00 7 0 Calma 9 Oeste 0 1015.1 -1.4 87
2020-03-29 05:00:00 8 3 Sudoeste 9 Oeste 0 1015.5 -1.3 88
2020-03-29 03:00:00 7.7 2 Sur 8 Norte 0 1016.5 -0.3 89
2020-03-29 01:00:00 7.8 4 Norte 8 Norte 0 1016.8 0.2 86
2020-03-29 00:00:00 8.7 3 Oeste 5 Sur 0 1016.9 0.5 85
2020-03-28 23:00:00 9 0 Calma 8 Noroeste 0 1016.8 1 81
2020-03-28 22:00:00 10.2 3 Noroeste 11 Norte 0 1016.6 1.3 81
2020-03-28 21:00:00 10.7 3 Norte 11 Norte 0 1016.4 1.6 76
2020-03-28 20:00:00 12.4 6 Norte 18 Norte 0 1015.8 1.2 68
2020-03-28 19:00:00 13.4 16 Norte 28 Nordeste 0 1015.3 0.8 62
2020-03-28 18:00:00 14.5 16 Norte 28 Nordeste 0 1014.8 0.2 54
2020-03-28 17:00:00 15.2 18 Norte 30 Norte 0 1014.6 -0.5 50
2020-03-28 16:00:00 15.9 21 Norte 32 Norte 0 1014.5 -1.1 46
2020-03-28 15:00:00 15.7 17 Norte 33 Nordeste 0 1014.6 -1.3 48
2020-03-28 14:00:00 15.8 18 Norte 30 Norte 0 1015.1 -0.5 46
2020-03-28 13:00:00 14.1 17 Norte 28 Norte 0 1015.6 0.1 53
2020-03-28 12:00:00 14 17 Norte 33 Norte 0 1015.9 1 56
2020-03-28 11:00:00 14.1 14 Norte 28 Norte 0 1015.6 1.2 55
2020-03-28 10:00:00 13.6 17 Nordeste 32 Nordeste 0 1015.5 1.3 63
2020-03-28 09:00:00 12 18 Norte 26 Nordeste 0 1014.9 1.1 70
2020-03-28 08:00:00 9.5 8 Norte 11 Norte 0 1014.4 0.8 80
2020-03-28 07:00:00 5.7 4 Sur 13 Norte 0 1014.2 0.7 81
2020-03-28 06:00:00 5.7 0 Calma 5 Sur 0 1013.8 0 81
2020-03-28 05:00:00 6 3 Noroeste 15 Norte 0 1013.6 -0.3 78
2020-03-28 04:00:00 7.5 13 Norte 15 Norte 0 1013.5 -0.5 74
2020-03-28 03:00:00 9.3 13 Norte 21 Norte 0 1013.8 -0.2 69
2020-03-28 02:00:00 9.7 15 Nordeste 24 Nordeste 0 1013.9 0 69
2020-03-28 01:00:00 7.8 12 Nordeste 15 Nordeste 0 1014 0.5 72
2020-03-28 00:00:00 6.7 3 Norte -- -- 0 1014 1 69
2020-03-27 23:00:00 8.4 7 Norte 9 Norte 0 1013.9 1.4 65
2020-03-27 22:00:00 7.9 6 Norte 13 Norte 0 1013.5 1.7 63
2020-03-27 21:00:00 8.9 9 Norte 11 Norte 0 1013 1.5 57
2020-03-27 20:00:00 9.9 9 Nordeste 21 Nordeste 0 1012.5 -- 56
2020-03-27 19:00:00 10.5 12 Nordeste 24 Este 0 1011.8 0.3 53
2020-03-27 18:00:00 12.1 16 Este 28 Este 0 1011.5 -0.2 44
2020-03-27 17:00:00 13.2 18 Este 28 Este 0 -- -- 45
2020-03-27 16:00:00 13.7 17 Este 28 Este 0 1011.5 -0.6 38
2020-03-27 15:00:00 13.6 19 Este 30 Este 0 1011.7 -0.4 44
2020-03-27 14:00:00 13.7 17 Nordeste 28 Este 0 1012 0.1 46
2020-03-27 13:00:00 13.9 17 Este 30 Este 0 1012.1 0.8 45
2020-03-27 12:00:00 14.3 17 Este 30 Este 0 1012.1 1 46
2020-03-27 11:00:00 13.4 19 Este 32 Este 0 1011.9 1.5 51
2020-03-27 10:00:00 12.9 20 Este 33 Nordeste 0 1011.3 1.7 52
2020-03-27 09:00:00 12.2 19 Nordeste 30 Este 0 1011.1 1.2 53
2020-03-27 08:00:00 10.6 19 Nordeste 28 Este 0 1010.4 0.7 58
2020-03-27 07:00:00 8.1 15 Nordeste 28 Nordeste 0 1009.6 0 68
2020-03-27 06:00:00 7.7 12 Norte 30 Este 0 1009.9 0.3 69
2020-03-27 05:00:00 9.4 18 Este 26 Este 0.1 1009.7 -0.1 66
2020-03-27 04:00:00 8.3 9 Nordeste 17 Norte 0.7 1009.6 0.4 80
2020-03-27 03:00:00 8.8 13 Norte 21 Norte 0 1009.6 0.3 75
2020-03-27 02:00:00 8.3 5 Norte 13 Este 0.2 1009.8 0.8 78
2020-03-27 01:00:00 8.1 7 Norte 17 Norte 0 1009.2 0.4 72
2020-03-27 00:00:00 8.4 10 Norte 18 Nordeste 0 1009.3 0.7 71
2020-03-26 23:00:00 8.8 12 Norte 18 Norte 0 1009 1 74
2020-03-26 22:00:00 8.6 10 Norte 22 Norte 0 1008.8 1.7 73
2020-03-26 21:00:00 8.9 10 Norte 22 Norte 0 1008.6 2.2 67
2020-03-26 20:00:00 9.4 7 Norte 28 Norte 0 1008 2.4 63
2020-03-26 19:00:00 10.4 17 Norte 30 Norte 0 1007.1 1.7 61
2020-03-26 18:00:00 11.3 15 Nordeste 39 Norte 0 1006.4 1 66
2020-03-26 17:00:00 12.9 22 Noroeste 35 Norte 0 1005.6 0.1 55
2020-03-26 16:00:00 12.2 16 Noroeste 30 Norte 0 1005.4 0.4 61
2020-03-26 15:00:00 10.6 15 Norte 41 Norte 1.1 1005.4 0.3 72
2020-03-26 14:00:00 12.9 26 Norte 33 Norte 0 1005.5 0 56
2020-03-26 13:00:00 14.4 19 Noroeste 37 Noroeste 0 1005 -0.6 51
2020-03-26 12:00:00 13.8 21 Norte 45 Noroeste 0 1005.1 -0.5 53
2020-03-26 11:00:00 12.8 24 Noroeste 35 Norte 0 1005.5 -0.4 63
2020-03-26 10:00:00 13 22 Noroeste 33 Oeste 0 1005.6 -0.9 64
2020-03-26 09:00:00 13.1 23 Oeste 37 Oeste 0 1005.6 -1.4 71
2020-03-26 08:00:00 11.8 30 Oeste 45 Sudoeste 0.2 1005.9 -2.1 77
2020-03-26 07:00:00 11.6 32 Sudoeste 42 Sudoeste 0 1006.5 -2.4 74
2020-03-26 06:00:00 11.3 28 Sudoeste 41 Sudoeste 0 1007 -3.1 72
2020-03-26 05:00:00 10.8 19 Sudoeste 32 Sudoeste 0 1008 -3.2 74
2020-03-26 04:00:00 6.9 4 Nordeste 13 Nordeste 0 1008.9 -3.4 88
2020-03-26 03:00:00 5.8 6 Norte 9 Norte 0 1010.1 -2.9 90
2020-03-26 02:00:00 4 2 Norte 9 Noroeste 0 1011.2 -2.2 89
2020-03-26 01:00:00 4.5 4 Noroeste 8 Noroeste 0 1012.3 -1.7 88
2020-03-26 00:00:00 4.6 4 Oeste 11 Noroeste 0 1013 -1.3 85
2020-03-25 23:00:00 5.4 3 Noroeste 11 Noroeste 0 1013.4 -0.6 85
2020-03-25 22:00:00 5.5 7 Sudoeste 13 Noroeste 0 1014 0 87
2020-03-25 21:00:00 6.1 11 Noroeste 13 Noroeste 0 1014.3 0 86
2020-03-25 20:00:00 7 8 Oeste 9 Oeste 0 1014 -0.6 85
2020-03-25 19:00:00 9.3 0 Calma 5 Noroeste 0 1014 -0.5 74
2020-03-25 18:00:00 9 3 Este 11 Norte 0.2 1014.3 -0.3 77
2020-03-25 17:00:00 9.2 7 Oeste 17 Oeste 0.5 1014.6 0.1 78
2020-03-25 16:00:00 9.3 11 Noroeste 18 Oeste 0.8 1014.5 0 79
2020-03-25 15:00:00 10.4 10 Noroeste 24 Nordeste 0.6 1014.6 0.4 67
2020-03-25 14:00:00 10.3 20 Nordeste 32 Nordeste 0 1014.5 0.1 64
2020-03-25 13:00:00 12.4 16 Este 33 Este 0 1014.5 0.1 47
2020-03-25 12:00:00 13.9 23 Este 35 Este 0 1014.2 -0.1 37
2020-03-25 11:00:00 13.6 23 Este 37 Este 0 1014.4 0.4 36
2020-03-25 10:00:00 12.9 21 Este 35 Este 0 1014.4 0.7 40
2020-03-25 09:00:00 11.3 22 Nordeste 33 Este 0 1014.3 1.1 47
2020-03-25 08:00:00 10.7 22 Nordeste 33 Nordeste 0 1014 0.9 51
2020-03-25 07:00:00 9.8 17 Nordeste 37 Nordeste 0 1013.7 0.5 57
2020-03-25 06:00:00 10.5 21 Nordeste 39 Nordeste 0 1013.2 -0.2 57
2020-03-25 05:00:00 10.7 25 Nordeste 41 Este 0 1013.1 -0.8 58
2020-03-25 04:00:00 9.8 18 Nordeste 32 Nordeste 0 1013.2 -0.8 60
2020-03-25 03:00:00 10.8 22 Nordeste 42 Nordeste 0 1013.4 -0.8 55
2020-03-25 02:00:00 10.9 21 Nordeste 46 Nordeste 0 1013.9 -0.6 56
2020-03-25 01:00:00 11.2 25 Nordeste 46 Nordeste 0 1014 -0.5 52
2020-03-25 00:00:00 11.3 26 Nordeste 50 Nordeste 0 1014.2 0.2 53
2020-03-24 23:00:00 11.3 28 Nordeste 50 Nordeste 0 1014.5 0.9 53
2020-03-24 22:00:00 12.1 30 Nordeste 50 Nordeste 0 1014.5 1.6 55
2020-03-24 21:00:00 12.8 33 Nordeste 55 Nordeste 0 1014 1.5 56
2020-03-24 20:00:00 13 40 Nordeste 59 Nordeste 0 1013.6 1.5 56
2020-03-24 19:00:00 13.3 34 Este 54 Nordeste 0 1012.9 0.8 62
2020-03-24 18:00:00 13.7 34 Este 54 Nordeste 0 1012.5 -0.1 64
2020-03-24 17:00:00 13.7 39 Nordeste 55 Este 0 1012.1 -1 66
2020-03-24 16:00:00 13.8 36 Nordeste 58 Este 0.1 1012.1 -1.5 70
2020-03-24 15:00:00 13.1 34 Nordeste 58 Este 0 1012.6 -1.2 79
2020-03-24 14:00:00 13.5 35 Nordeste 54 Nordeste 0.3 1013.1 -0.5 80
2020-03-24 13:00:00 14.9 31 Nordeste 54 Nordeste 0 1013.6 0.1 72
2020-03-24 12:00:00 15.2 34 Nordeste 55 Nordeste 0 1013.8 0.5 69
2020-03-24 11:00:00 15.1 31 Nordeste 58 Este 0 1013.6 0.5 71
2020-03-24 10:00:00 15.1 37 Este 55 Este 0 1013.5 0.6 66
2020-03-24 09:00:00 14.7 38 Este 55 Este 0 1013.3 1.1 67
2020-03-24 08:00:00 14.5 38 Este 59 Este 0 1013.1 0.7 68
2020-03-24 07:00:00 14.5 38 Este 58 Nordeste 0 1012.9 0.3 70
2020-03-24 06:00:00 14.6 37 Nordeste 55 Este 0 1012.2 -1 72
2020-03-24 05:00:00 14.5 35 Nordeste 58 Este 0 1012.4 -1.4 72
2020-03-24 04:00:00 14.4 38 Este 55 Este 0 1012.6 -0.8 72
2020-03-24 03:00:00 14.4 32 Nordeste 48 Este 0 1013.2 -0.6 77
2020-03-24 02:00:00 14.4 31 Este 52 Este 0 1013.8 -0.4 76
2020-03-24 01:00:00 14.4 37 Este 58 Este 0 1013.4 -0.7 73
2020-03-24 00:00:00 14.5 36 Nordeste 58 Este 0 1013.8 -0.6 72
2020-03-23 23:00:00 14.5 36 Este 54 Este 0 1014.2 -0.4 72
2020-03-23 22:00:00 14.5 36 Este 54 Este 0 1014.1 -0.2 73
2020-03-23 21:00:00 14.7 32 Este 46 Este 0 1014.4 0.6 75
2020-03-23 20:00:00 14.9 26 Este 46 Este 0 1014.6 1 75
2020-03-23 19:00:00 14.9 25 Nordeste 42 Norte 0 1014.3 0.5 76
2020-03-23 18:00:00 15.1 24 Este 39 Este 0 1013.8 -0.1 72
2020-03-23 17:00:00 15.5 25 Este 39 Norte 0 1013.6 -0.9 69
2020-03-23 16:00:00 16 25 Este 37 Este 0 1013.8 -1.3 68
2020-03-23 15:00:00 16.4 24 Este 37 Norte 0 1013.9 -1.3 69
2020-03-23 14:00:00 17.6 25 Nordeste 35 Este 0 1014.5 -0.7 65
2020-03-23 13:00:00 16.8 21 Este 30 Este 0 1015.1 0 68
2020-03-23 12:00:00 17 21 Este 30 Este 0 1015.2 0.8 67
2020-03-23 11:00:00 16.9 21 Nordeste 32 Este 0 1015.2 1.5 68
2020-03-23 10:00:00 16.4 20 Este 28 Este 0 1015.1 1.7 70
2020-03-23 09:00:00 15.7 17 Este 26 Este 0 1014.4 1.3 75
2020-03-23 08:00:00 15.2 13 Este 22 Este 0 1013.7 0.9 80
2020-03-23 07:00:00 13.7 12 Este 17 Sudeste 0 1013.4 0.8 85
2020-03-23 06:00:00 11.4 7 Norte 9 Norte 0 1013.1 0.3 89
2020-03-23 05:00:00 11.9 7 Norte 9 Norte 0 1012.8 -0.2 88
2020-03-23 04:00:00 12.3 5 Norte 9 Sur 0 1012.6 -0.4 85
2020-03-23 03:00:00 13.5 5 Sudeste 13 Sudeste 0 1012.8 -0.1 83
2020-03-23 02:00:00 13.9 5 Sudeste 15 Este 0 1013 0 82
2020-03-23 01:00:00 11.9 4 Norte 9 Nordeste 0 1013 0.5 85
2020-03-23 00:00:00 11.8 8 Norte 11 Norte 0 1012.9 0.7 85
2020-03-22 23:00:00 11.3 0 Calma 9 Norte 0 1013 1.2 86
2020-03-22 22:00:00 10.8 7 Norte 13 Norte 0 1012.5 1.2 84
2020-03-22 21:00:00 11.1 11 Norte 13 Norte 0 1012.2 1.6 81
2020-03-22 20:00:00 12.5 6 Sudoeste 11 Sudoeste 0 1011.8 1.7 79
2020-03-22 19:00:00 13.8 9 Sudoeste 17 Sudoeste 0 1011.3 1.5 73
2020-03-22 18:00:00 15.6 12 Sudoeste 22 Sudoeste 0 1010.6 0.5 67
2020-03-22 17:00:00 16.1 13 Sudoeste 22 Sur 0 1010.1 -0.3 66
2020-03-22 16:00:00 16.6 17 Sudoeste 22 Sudoeste 0 1009.8 -0.7 65
2020-03-22 15:00:00 16.3 15 Sudoeste 30 Sudoeste 0 1010.1 -0.3 66
2020-03-22 14:00:00 16.4 17 Sudoeste 24 Sudoeste 0 1010.4 0.2 65
2020-03-22 13:00:00 16.3 17 Sudoeste 24 Sur 0 1010.5 0.5 65
2020-03-22 12:00:00 16.1 13 Sudoeste 21 Sudoeste 0 1010.4 1 69
2020-03-22 11:00:00 15.7 12 Sur 17 Sudoeste 0 1010.2 1.1 76
2020-03-22 10:00:00 15.3 7 Sur 13 Sur 0 1010 1.2 77
2020-03-22 09:00:00 13.7 4 Sudoeste 9 Noroeste 0 1009.4 0.5 85
2020-03-22 08:00:00 12.1 0 Calma 5 Sudoeste 0 1009.1 0.3 90
2020-03-22 07:00:00 12.2 3 Norte 13 Oeste 0.2 1008.8 0.1 89
2020-03-22 06:00:00 12.3 12 Oeste 17 Oeste 1.9 1008.9 -0.2 88
2020-03-22 05:00:00 12.8 3 Oeste -- -- 1.2 1008.8 -0.8 88
2020-03-22 04:00:00 12.1 0 Calma 5 Este 0 1008.7 -1.4 85
2020-03-22 03:00:00 12 0 Calma 4 Norte 0 1009.1 -1.7 86
2020-03-22 02:00:00 11.3 0 Calma 8 Norte 0 1009.6 -1.3 86
2020-03-22 01:00:00 11.7 7 Norte 9 Norte 0 1010.1 -0.7 85
2020-03-22 00:00:00 10.9 0 Calma 11 Noroeste 0 1010.8 0.2 86
2020-03-21 23:00:00 11.1 5 Norte 9 Nordeste 0 1010.9 0.5 83
2020-03-21 22:00:00 12.1 4 Noroeste 8 Noroeste 0 1010.8 0.8 82
2020-03-21 21:00:00 13 5 Norte 11 Norte 0 1010.6 1.1 80
2020-03-21 20:00:00 13.4 6 Nordeste 11 Nordeste 0 1010.4 1 79
2020-03-21 19:00:00 14 10 Este 24 Este 0 1010 0.5 80
2020-03-21 18:00:00 14.8 15 Este 26 Este 0 1009.5 -0.4 77
2020-03-21 17:00:00 15.5 18 Este 28 Este 0 1009.4 -1 73
2020-03-21 16:00:00 16.1 16 Este 28 Este 0 1009.5 -1.5 67
2020-03-21 15:00:00 15.9 16 Este 30 Este 0 1009.9 -1.6 69
2020-03-21 14:00:00 16.2 21 Este 32 Norte 0 1010.4 -1.1 66
2020-03-21 13:00:00 17.1 18 Este 26 Este 0 1011 -0.7 58
2020-03-21 12:00:00 17.1 14 Este 22 Este 0 1011.5 0 54
2020-03-21 11:00:00 16.7 13 Este 21 Este 0 1011.5 -0.1 58
2020-03-21 10:00:00 15.8 10 Este 22 Nordeste 0 1011.7 0.1 61
2020-03-21 09:00:00 14.6 14 Nordeste 21 Nordeste 0 1011.5 -0.2 69
2020-03-21 08:00:00 12.1 9 Norte 15 Norte 0 1011.6 -0.2 81
2020-03-21 07:00:00 9.8 4 Norte 11 Norte 0 1011.6 -0.5 88
2020-03-21 06:00:00 10.4 9 Norte 13 Norte 0 1011.7 -1 86
2020-03-21 05:00:00 10.4 9 Nordeste 17 Norte 0 1011.8 -1.4 84
2020-03-21 04:00:00 11.7 13 Norte 18 Nordeste 0 1012.1 -1.6 82
2020-03-21 03:00:00 12.3 14 Nordeste 18 Norte 0 1012.7 -1.4 80
2020-03-21 02:00:00 12.4 11 Nordeste 22 Nordeste 0 1013.2 -1.1 78
2020-03-21 01:00:00 13.7 15 Nordeste 30 Este 0 1013.7 -0.9 74
2020-03-21 00:00:00 14 19 Este 33 Este 0 1014.1 -0.5 73
2020-03-20 23:00:00 14.3 19 Este 30 Este 0 1014.3 0.3 72
2020-03-20 22:00:00 14.2 13 Nordeste 21 Nordeste 0 1014.6 0.6 70
2020-03-20 21:00:00 14.1 11 Norte 17 Nordeste 0 1014.6 1.1 69
2020-03-20 20:00:00 13.6 13 Nordeste 22 Nordeste 0 1014 0 71
2020-03-20 19:00:00 14.1 16 Nordeste 35 Norte 0 1014 -0.8 68
2020-03-20 18:00:00 15 27 Nordeste 41 Nordeste 0 1013.5 -1.8 61
2020-03-20 17:00:00 16 26 Nordeste 35 Nordeste 0 1014 -1.8 59
2020-03-20 16:00:00 15.6 22 Este 33 Este 0 1014.8 -1.1 65
2020-03-20 15:00:00 15.6 22 Este 32 Este 0 1015.3 -1.4 63
2020-03-20 14:00:00 15.5 23 Nordeste 39 Este 0 1015.8 -1.1 64
2020-03-20 13:00:00 16.6 28 Este 41 Este 0 1015.9 -0.6 60
2020-03-20 12:00:00 15.3 20 Nordeste 32 Este 0 1016.7 0.5 69
2020-03-20 11:00:00 15.2 22 Este 35 Nordeste 0 1016.9 1.2 68
2020-03-20 10:00:00 14.8 21 Nordeste 37 Nordeste 0 1016.5 1.5 71
2020-03-20 09:00:00 14 23 Nordeste 37 Nordeste 0 1016.2 0.3 72
2020-03-20 08:00:00 13.3 18 Nordeste 41 Nordeste 0 1015.7 -0.4 74
2020-03-20 07:00:00 12.9 27 Nordeste 45 Nordeste 0 1015 -1.1 74
2020-03-20 06:00:00 13.2 20 Nordeste 30 Nordeste 0 1015.9 -0.4 74
2020-03-20 05:00:00 13.1 20 Nordeste 33 Este 0 1016.1 -0.8 74
2020-03-20 04:00:00 13.6 21 Nordeste 33 Nordeste 0 1016.1 -1.2 73
2020-03-20 03:00:00 13.5 23 Nordeste 35 Nordeste 0 1016.3 -1.6 73
2020-03-20 02:00:00 13.7 21 Nordeste 35 Nordeste 0 1016.9 -1.5 72
2020-03-20 01:00:00 13.7 22 Este 33 Este 0 1017.3 -1.2 70
2020-03-20 00:00:00 13.8 22 Este 33 Este 0 1017.9 -0.5 72
2020-03-19 23:00:00 13.8 18 Este 32 Este 0 1018.4 0.1 72
2020-03-19 22:00:00 13.8 16 Nordeste 30 Este 0 1018.5 0.3 72
2020-03-19 21:00:00 14 18 Este 30 Nordeste 0 1018.4 0.3 74
2020-03-19 20:00:00 14.1 19 Este 32 Este 0 1018.3 -0.2 74
2020-03-19 19:00:00 14.2 17 Este 28 Este 0 1018.2 -0.6 73
2020-03-19 18:00:00 15 18 Este 30 Este 0 1018.1 -1.3 72
2020-03-19 17:00:00 15.7 21 Este 32 Nordeste 0 1018.5 -1.6 69
2020-03-19 16:00:00 16.5 21 Este 33 Este 0 1018.8 -1.8 66
2020-03-19 15:00:00 16.6 23 Este 33 Este 0 1019.4 -1.7 65
2020-03-19 14:00:00 16.6 22 Este 33 Este 0 1020.1 -1.2 65
2020-03-19 13:00:00 16.7 24 Este 33 Este 0 1020.6 -0.8 63
2020-03-19 12:00:00 16.1 21 Este 33 Este 0 1021.1 -0.1 67
2020-03-19 11:00:00 16 22 Este 33 Este 0 1021.3 0.4 68
2020-03-19 10:00:00 15.6 19 Nordeste 32 Este 0 1021.4 0.6 73
2020-03-19 09:00:00 14.6 16 Este 28 Norte 0 1021.2 0.6 73
2020-03-19 08:00:00 13.9 17 Nordeste 30 Este 0 1020.9 0.3 78
2020-03-19 07:00:00 12.7 12 Nordeste 22 Nordeste 0 1020.8 0 84
2020-03-19 06:00:00 12.6 12 Nordeste 22 Nordeste 0 1020.6 -0.7 84
2020-03-19 05:00:00 12.6 12 Nordeste 21 Nordeste 0 1020.6 -1.2 84
2020-03-19 04:00:00 12.6 12 Nordeste 17 Nordeste 0 1020.8 -1.4 84
2020-03-19 03:00:00 12.6 12 Nordeste 17 Nordeste 0 1021.3 -1.4 84
2020-03-19 02:00:00 12.9 13 Nordeste 18 Nordeste 0 1021.8 -1.1 83
2020-03-19 01:00:00 13.4 11 Nordeste 26 Este 0 1022.2 -0.9 79
2020-03-19 00:00:00 14.1 17 Nordeste 30 Este 0 1022.7 0 79
2020-03-18 23:00:00 14.3 17 Este 30 Nordeste 0 1022.9 0.4 79
2020-03-18 22:00:00 14.3 15 Nordeste 28 Este 0 1023.1 0.9 79
2020-03-18 21:00:00 14.3 19 Nordeste 28 Este 0 1022.7 0.8 78
2020-03-18 20:00:00 13.9 12 Nordeste 26 Nordeste 0 1022.5 0.8 79
2020-03-18 19:00:00 14.8 16 Nordeste 30 Este 0 1022.2 0.3 74
2020-03-18 18:00:00 15.5 18 Este 33 Este 0 1021.9 -0.3 73
2020-03-18 17:00:00 16.2 20 Este 37 Nordeste 0 1021.7 -1 69
2020-03-18 16:00:00 17.2 20 Nordeste 33 Este 0 1021.9 -1.6 62
2020-03-18 15:00:00 17.5 24 Este 39 Este 0 1022.2 -1.9 61
2020-03-18 14:00:00 17.6 24 Nordeste 37 Este 0 1022.7 -1.5 61
2020-03-18 13:00:00 16.5 25 Nordeste 37 Nordeste 0 1023.5 -0.5 65
2020-03-18 12:00:00 16.6 24 Nordeste 39 Este 0 1024.1 0.5 64
2020-03-18 11:00:00 17.1 24 Este 37 Este 0 1024.2 0.5 62
2020-03-18 10:00:00 16.3 20 Nordeste 35 Nordeste 0 1024 0.3 64
2020-03-18 09:00:00 15.1 18 Nordeste 28 Norte 0 1023.6 0.1 74
2020-03-18 08:00:00 14 16 Nordeste 26 Nordeste 0 1023.7 0.3 74
2020-03-18 07:00:00 14 16 Nordeste 22 Nordeste 0 1023.7 0.3 70
2020-03-18 06:00:00 14.1 14 Nordeste 28 Nordeste 0 1023.5 -0.2 67
2020-03-18 05:00:00 14.6 18 Nordeste 33 Nordeste 0 1023.4 -0.6 64
2020-03-18 04:00:00 14.8 23 Nordeste 42 Este 0 1023.4 -0.8 63
2020-03-18 03:00:00 14.6 27 Nordeste 42 Nordeste 0 1023.7 -0.7 69
2020-03-18 02:00:00 14.7 23 Nordeste 39 Este 0 1024 -0.5 74
2020-03-18 01:00:00 14.8 25 Nordeste 41 Nordeste 0 1024.2 0.2 74
2020-03-18 00:00:00 14.8 26 Nordeste 46 Nordeste 0 1024.4 0.9 76
2020-03-17 23:00:00 14.9 30 Nordeste 46 Nordeste 0 1024.5 1.8 76
2020-03-17 22:00:00 14.9 32 Este 52 Este 0 1024 2.1 77
2020-03-17 21:00:00 15 33 Este 58 Este 0 1023.5 2.1 76
2020-03-17 20:00:00 15 35 Este 54 Norte 0 1022.7 1.6 75
2020-03-17 19:00:00 15 35 Nordeste 58 Este 0 1021.9 1 76
2020-03-17 18:00:00 15.3 35 Nordeste 54 Este 0 1021.4 0.4 76
2020-03-17 17:00:00 15.5 30 Nordeste 50 Nordeste 0 1021.1 0.5 78
2020-03-17 16:00:00 15.9 37 Nordeste 61 Nordeste 0 1020.9 0 77
2020-03-17 15:00:00 16 33 Nordeste 48 Nordeste 0 1021 0.1 78
2020-03-17 14:00:00 15.7 32 Nordeste 59 Nordeste 0 1020.6 -0.7 78
2020-03-17 13:00:00 15.7 33 Nordeste 48 Nordeste 0 1020.9 -0.2 81
2020-03-17 12:00:00 16.1 29 Nordeste 42 Nordeste 0 1020.9 0.1 80
2020-03-17 11:00:00 15.6 22 Nordeste 35 Nordeste 0 1021.3 0.8 82
2020-03-17 10:00:00 15.7 19 Nordeste 32 Nordeste 0 1021.1 1.3 86
2020-03-17 09:00:00 15.1 16 Nordeste 26 Nordeste 0 1020.8 2.2 88
2020-03-17 08:00:00 14.8 15 Nordeste 22 Nordeste 0 1020.5 2.1 90
2020-03-17 07:00:00 14.2 6 Norte 13 Noroeste 0 1019.8 1.9 90
2020-03-17 06:00:00 14 10 Noroeste 21 Norte 1.5 1018.6 0.8 90
2020-03-17 05:00:00 13.3 7 Nordeste 13 Norte 1.6 1018.4 1.4 90
2020-03-17 04:00:00 13.5 9 Noroeste 11 Norte 0 1017.9 0.2 89
2020-03-17 03:00:00 13.6 9 Noroeste 13 Noroeste 0 1017.8 0.6 88
2020-03-17 02:00:00 13.9 13 Norte 17 Norte 0.1 1017 0.3 89
2020-03-17 01:00:00 13.9 0 Calma 11 Norte 0 1017.7 1.6 85
2020-03-17 00:00:00 14 6 Norte 11 Norte 0 1017.2 2.1 83
2020-03-16 23:00:00 13.4 5 Nordeste 8 Este 0 1016.7 2.2 84
2020-03-16 22:00:00 12.9 3 Este 9 Norte 0 1016.1 2.6 83
2020-03-16 21:00:00 13 7 Norte 15 Norte 0 1015.1 2.8 82
2020-03-16 20:00:00 13.5 9 Noroeste 24 Noroeste 0 1014.5 2.6 81
2020-03-16 19:00:00 14.3 16 Noroeste 24 Noroeste 0 1013.5 2.1 77
2020-03-16 18:00:00 15.5 9 Sudoeste 18 Sudoeste 0 1012.3 1.4 79
2020-03-16 17:00:00 16.1 13 Sudoeste 24 Sudoeste 0 1011.9 1.1 75
2020-03-16 16:00:00 17.1 18 Sudoeste 26 Sudoeste 0 1011.4 0.7 70
2020-03-16 15:00:00 16.8 15 Sudoeste 24 Sudoeste 0 1010.9 0.1 76
2020-03-16 14:00:00 16.1 18 Sudoeste 24 Sudoeste 0 1010.8 0.1 84
2020-03-16 13:00:00 16.7 13 Sudoeste 18 Sudoeste 0 1010.7 0.8 84
2020-03-16 12:00:00 16.8 7 Sur 13 Sudeste 0.1 1010.8 1 86
2020-03-16 11:00:00 15.7 8 Este 18 Este 0.4 1010.7 1.7 87
2020-03-16 10:00:00 15.5 12 Este 22 Este 0 1009.9 0.7 86
2020-03-16 09:00:00 15.1 15 Este 32 Este 0 1009.8 -0.2 86
2020-03-16 08:00:00 14.8 22 Este 32 Este 0 1009 -0.2 85
2020-03-16 07:00:00 14.4 14 Este 22 Este 0 1009.2 -1.4 85
2020-03-16 06:00:00 14.6 15 Este 37 Este 0 1010 -1.3 81
2020-03-16 05:00:00 14.4 20 Este 30 Este 0 1009.2 -2.6 80
2020-03-16 04:00:00 14.3 13 Este 26 Norte 0 1010.6 -1.7 79
2020-03-16 03:00:00 14.3 17 Este 30 Norte 0 1011.3 -1.5 77
2020-03-16 02:00:00 14.3 18 Este 26 Este 0 1011.8 -2 78
2020-03-16 01:00:00 14.1 17 Este 26 Norte 0 1012.3 -2.1 78
2020-03-16 00:00:00 14.2 20 Nordeste 30 Norte 0 1012.8 -1.3 77
2020-03-15 23:00:00 14.1 15 Este 28 Sudeste 0 1013.8 0.2 77
2020-03-15 22:00:00 14 17 Este 30 Sudeste 0 1014.4 0.8 78
2020-03-15 21:00:00 14 15 Este 24 Norte 0 1014.1 0.6 76
2020-03-15 20:00:00 14 15 Este 26 Este 0 1013.6 -0.5 74
2020-03-15 19:00:00 14.2 14 Este 28 Este 0 1013.6 -1 76
2020-03-15 18:00:00 15.1 19 Este 28 Norte 0 1013.5 -1.6 73
2020-03-15 17:00:00 15.8 18 Nordeste 28 Este 0 1014.1 -2 70
2020-03-15 16:00:00 16.1 19 Nordeste 28 Este 0 1014.6 -2.3 69
2020-03-15 15:00:00 16.6 18 Este 28 Este 0 1015.1 -2.4 67
2020-03-15 14:00:00 17 17 Este 28 Este 0 1016.1 -1.7 65
2020-03-15 13:00:00 17 18 Este 30 Sudeste 0 1016.9 -1 66
2020-03-15 12:00:00 16.7 21 Este 30 Este 0 1017.5 -0.3 67
2020-03-15 11:00:00 16.5 18 Este 30 Este 0 1017.8 0.4 69
2020-03-15 10:00:00 15.7 16 Este 26 Este 0 1017.9 0.7 71
2020-03-15 09:00:00 14.2 15 Este 22 Este 0 1017.8 0.6 80
2020-03-15 08:00:00 12.5 12 Este 21 Este 0 1017.4 0.1 89
2020-03-15 07:00:00 9.9 10 Norte 13 Norte 0 1017.2 -0.1 90
2020-03-15 06:00:00 9.1 9 Norte 13 Norte 0 1017.2 -0.8 90
2020-03-15 05:00:00 8.9 8 Norte -- -- 0 1017.3 -1.2 89
2020-03-15 04:00:00 9.6 10 Norte 13 Norte 0 1017.3 -1.5 89
2020-03-15 03:00:00 9.7 8 Norte 11 Norte 0 1018 -0.9 88
2020-03-15 02:00:00 9.8 8 Norte 11 Norte 0 1018.5 -0.5 87
2020-03-15 01:00:00 10.7 5 Norte 9 Norte 0 1018.8 -0.2 85
2020-03-15 00:00:00 10.5 6 Norte 11 Noroeste 0 1018.9 0.1 85
2020-03-14 23:00:00 10.3 9 Norte 11 Norte 0 1019 0.5 83
2020-03-14 22:00:00 11.1 5 Norte 9 Noroeste 0 1019 0.8 81
2020-03-14 21:00:00 12.3 4 Este 9 Sudeste 0 1018.8 0.8 79
2020-03-14 20:00:00 13.3 8 Este 11 Este 0 1018.5 0.5 73
2020-03-14 19:00:00 13.9 8 Este 17 Este 0 1018.2 0.1 69
2020-03-14 18:00:00 15.5 11 Este 21 Este 0 1018 -0.3 62
2020-03-14 17:00:00 16.1 14 Este 24 Este 0 1018 -0.8 62
2020-03-14 16:00:00 16.8 14 Este 24 Este 0 1018.1 -1.2 62
2020-03-14 15:00:00 16.9 16 Este 24 Este 0 1018.3 -1.5 62
2020-03-14 14:00:00 17.1 15 Este 26 Este 0 1018.8 -1.1 62
2020-03-14 13:00:00 17.2 14 Este 24 Este 0 1019.3 -0.1 62
2020-03-14 12:00:00 16.7 12 Este 18 Norte 0 1019.8 1 63
2020-03-14 11:00:00 16.3 10 Este 17 Este 0 1019.9 1.8 63
2020-03-14 10:00:00 16.6 9 Este 17 Norte 0 1019.4 1.8 60
2020-03-14 09:00:00 14.3 5 Nordeste 9 Nordeste 0 1018.8 1.6 69
2020-03-14 08:00:00 10 7 Norte 11 Norte 0 1018.1 1.3 82
2020-03-14 07:00:00 9.1 5 Norte 8 Norte 0 1017.6 0.9 82
2020-03-14 06:00:00 9.5 5 Norte 8 Norte 0 1017.2 0.1 82
2020-03-14 05:00:00 10.3 7 Norte 9 Norte 0 1016.8 -0.8 79
2020-03-14 04:00:00 10.8 5 Norte 9 Norte 0 1016.7 -0.8 81
2020-03-14 03:00:00 11.6 6 Nordeste 9 Norte 0 1017.1 -0.3 84
2020-03-14 02:00:00 12.3 4 Nordeste 11 Este 0 1017.6 0.1 84
2020-03-14 01:00:00 13.1 2 Sur 9 Noroeste 0 1017.5 0.3 81
2020-03-14 00:00:00 12.2 3 Noroeste 8 Oeste 0 1017.4 0.4 81
2020-03-13 23:00:00 12.6 0 Calma 9 Oeste 0 1017.5 0.8 79
2020-03-13 22:00:00 13.8 5 Norte 11 Noroeste 0 1017.2 1.1 76
2020-03-13 21:00:00 13.8 8 Norte 13 Norte 0 1017 1.3 76
2020-03-13 20:00:00 15 4 Norte 15 Nordeste 0 1016.7 0.9 70
2020-03-13 19:00:00 15.5 8 Nordeste 18 Nordeste 0 1016.1 -0.2 70
2020-03-13 18:00:00 16.1 10 Este 18 Nordeste 0 1015.7 -0.9 70
2020-03-13 17:00:00 16.5 14 Nordeste 21 Nordeste 0 1015.8 -1.1 69
2020-03-13 16:00:00 17.2 14 Este 22 Este 0 1016.3 -1 65
2020-03-13 15:00:00 17.6 13 Este 22 Este 0 1016.6 -1 65
2020-03-13 14:00:00 17.6 12 Nordeste 28 Este 0 1016.9 -0.5 64
2020-03-13 13:00:00 17.7 21 Nordeste 35 Este 0 1017.3 0.2 62
2020-03-13 12:00:00 17.7 24 Nordeste 39 Nordeste 0 1017.6 1.2 62
2020-03-13 11:00:00 17.3 24 Nordeste 35 Nordeste 0 1017.4 1.8 64
2020-03-13 10:00:00 16.6 25 Este 39 Este 0 1017.1 1.9 61
2020-03-13 09:00:00 16 18 Nordeste 32 Nordeste 0 1016.4 1.6 62
2020-03-13 08:00:00 11.5 12 Nordeste 18 Nordeste 0 1015.6 0.7 78
2020-03-13 07:00:00 12.6 13 Nordeste 22 Nordeste 0 1015.2 0.4 73
2020-03-13 06:00:00 10.9 13 Nordeste -- -- 0 1014.8 -0.2 79
2020-03-13 05:00:00 11.2 9 Este 13 Este 0 1014.9 -0.3 77
2020-03-13 04:00:00 10.3 9 Nordeste 13 Norte 0 1014.8 -0.9 63
2020-03-13 03:00:00 10.2 8 Norte 11 Norte 0 1015 -1.5 65
2020-03-13 02:00:00 10.9 7 Norte 15 Norte 0 1015.2 -1 67
2020-03-13 01:00:00 11.3 9 Norte 13 Norte 0 1015.7 -0.2 71
2020-03-13 00:00:00 12.4 8 Norte 13 Norte 0 1016.5 0.7 68
2020-03-12 23:00:00 12.9 8 Norte 11 Norte 0 1016.2 0.3 66
2020-03-12 22:00:00 13 8 Norte 17 Norte 0 1015.9 -0.4 71
2020-03-12 21:00:00 13.9 12 Norte 13 Nordeste 0 1015.8 -0.1 75
2020-03-12 20:00:00 12.8 11 Nordeste 15 Nordeste 0 1015.9 -0.4 83
2020-03-12 19:00:00 15.4 4 Nordeste 13 Nordeste 0 1016.3 -0.2 77
2020-03-12 18:00:00 16.9 10 Nordeste 17 Este 0 1015.9 -1.1 72
2020-03-12 17:00:00 18 9 Este 21 Este 0 1016.3 -1.7 66
2020-03-12 16:00:00 18.5 14 Nordeste 18 Norte 0 1016.5 -2.8 62
2020-03-12 15:00:00 19.1 13 Este 18 Este 0 1017 -2.6 61
2020-03-12 14:00:00 19.6 12 Este 17 Este 0 1018 -1.8 62
2020-03-12 13:00:00 18.4 11 Este 18 Este 0 1019.3 -0.6 68
2020-03-12 12:00:00 17.9 12 Nordeste 18 Este 0 1019.6 -0.2 70
2020-03-12 11:00:00 17.1 10 Este 17 Este 0 1019.8 0.2 74
2020-03-12 10:00:00 16.1 9 Este 13 Este 0 1019.9 0.7 78
2020-03-12 09:00:00 14.4 5 Nordeste 8 Nordeste 0 1019.8 0.5 69
2020-03-12 08:00:00 10 4 Noroeste 9 Norte 0 1019.6 0.1 76
2020-03-12 07:00:00 8.6 5 Nordeste 9 Norte 0 1019.2 -0.6 86
2020-03-12 06:00:00 8.1 0 Calma 9 Norte 0 1019.3 -0.8 87
2020-03-12 05:00:00 8.6 2 Noroeste 8 Noroeste 0 1019.5 -0.9 87
2020-03-12 04:00:00 8.6 0 Calma 9 Noroeste 0 1019.8 -1 86
2020-03-12 03:00:00 8.6 4 Norte 9 Norte 0 1020.1 -0.9 82
2020-03-12 02:00:00 9.1 6 Noroeste 9 Noroeste 0 1020.4 -0.9 80
2020-03-12 01:00:00 10.3 0 Calma 5 Noroeste 0 1020.8 -0.7 90
2020-03-12 00:00:00 11.2 0 Calma 9 Noroeste 0 1021 -0.2 89
2020-03-11 23:00:00 11.9 8 Noroeste 13 Oeste 0 1021.3 0 87
2020-03-11 22:00:00 11.9 8 Oeste 13 Oeste 0 1021.5 0.4 85
2020-03-11 21:00:00 13.2 7 Oeste 13 Oeste 0 1021.2 0.4 82
2020-03-11 20:00:00 13.6 7 Oeste 13 Sudoeste 0 1021.3 0.6 83
2020-03-11 19:00:00 14.7 9 Sudoeste 17 Sudoeste 0 1021.1 0.4 76
2020-03-11 18:00:00 16.3 13 Sudoeste 21 Sudoeste 0 1020.8 -0.4 74
2020-03-11 17:00:00 17 15 Sudoeste 18 Sudoeste 0 1020.7 -0.8 69
2020-03-11 16:00:00 17.8 13 Sudoeste 22 Sudoeste 0 1020.7 -1.3 66
2020-03-11 15:00:00 17.5 16 Sudoeste 30 Sudoeste 0 1021.2 -1.2 67
2020-03-11 14:00:00 17.3 22 Sudoeste 30 Sudoeste 0 1021.5 -1.2 67
2020-03-11 13:00:00 17.4 22 Sudoeste 30 Sudoeste 0 1022 -0.2 67
2020-03-11 12:00:00 17.5 20 Sudoeste 30 Sudoeste 0 1022.4 0.4 67
2020-03-11 11:00:00 17.2 19 Sudoeste 28 Sudoeste 0 1022.7 1 71
2020-03-11 10:00:00 16.4 18 Sudoeste 28 Sudoeste 0 1022.2 0.9 72
2020-03-11 09:00:00 15.5 18 Sudoeste 24 Oeste 0 1022 0.9 78
2020-03-11 08:00:00 13.4 13 Sudoeste 17 Sudoeste 0 1021.7 0.6 87
2020-03-11 07:00:00 11.3 11 Oeste 13 Oeste 0 1021.3 0 88
2020-03-11 06:00:00 11.4 10 Oeste 13 Oeste 0 1021.1 -0.9 86
2020-03-11 05:00:00 12.9 11 Sudoeste 17 Sudoeste 0 1021.1 -1.4 82
2020-03-11 04:00:00 13.1 13 Sudoeste 17 Sudoeste 0 1021.3 -1.3 80
2020-03-11 03:00:00 13.1 12 Sudoeste 17 Sudoeste 0 1022 -1 80
2020-03-11 02:00:00 13.5 13 Sudoeste 24 Sudoeste 0 1022.5 -0.7 77
2020-03-11 01:00:00 13.8 17 Sudoeste 26 Sudoeste 0 1022.6 -0.5 73
2020-03-11 00:00:00 13.8 16 Sudoeste 24 Sudoeste 0 1023 -0.3 73